Sunday, February 17, 2019, 3:05 PM EST
Back to Local

KDDH, Bennington Morse State Airport

Location: Bennington, VT, United States Lat: 42.883
Local Time: 3:05 PM EST (20:05 GMT) Lon: -73.25
Time Zone: US/Eastern Elev: 826 ft

Show me the last for .
Show Decoded

2019-02-17 13:54 METAR KDDH 171854Z AUTO 28006KT 10SM CLR M03/M14 A3008 RMK AO2 SLP197 T10331139
                 =
2019-02-17 12:54 METAR KDDH 171754Z AUTO 26006KT 10SM CLR M03/M13 A3006 RMK AO2 SLP192 T10331128
                 11033 21111 58020 =
2019-02-17 11:54 METAR KDDH 171654Z AUTO VRB04KT 10SM CLR M04/M13 A3008 RMK AO2 SLP199 T10391133
                 =
2019-02-17 10:54 METAR KDDH 171554Z AUTO VRB06KT 10SM CLR M05/M13 A3012 RMK AO2 SLP210 T10501128
                 =
2019-02-17 09:54 METAR KDDH 171454Z AUTO VRB03KT 10SM CLR M06/M13 A3012 RMK AO2 SLP213 T10561133
                 51013 =
2019-02-17 08:54 METAR KDDH 171354Z AUTO 33004KT 10SM CLR M07/M13 A3012 RMK AO2 SLP212 T10721128
                 =
2019-02-17 07:54 METAR KDDH 171254Z AUTO 36003KT 10SM CLR M09/M13 A3012 RMK AO2 SLP214 T10891128
                 =
2019-02-17 06:54 METAR KDDH 171154Z AUTO 00000KT 10SM CLR M11/M14 A3009 RMK AO2 SLP202 T11111139
                 11072 21117 51016 =
2019-02-17 05:54 METAR KDDH 171054Z AUTO 00000KT 10SM CLR M10/M14 A3007 RMK AO2 SLP195 T11001139
                 =
2019-02-17 04:54 METAR KDDH 170954Z AUTO 31003KT 10SM CLR M09/M13 A3006 RMK AO2 SLP192 T10891133
                 =
2019-02-17 03:54 METAR KDDH 170854Z AUTO 30003KT 10SM CLR M09/M13 A3004 RMK AO2 SLP184 T10891133
                 51001 =
2019-02-17 02:54 METAR KDDH 170754Z AUTO VRB03KT 10SM CLR M08/M13 A3004 RMK AO2 SLP183 T10781128
                 =
2019-02-17 01:54 METAR KDDH 170654Z AUTO 00000KT 10SM CLR M08/M13 A3004 RMK AO2 SLP185 T10781128
                 =
2019-02-17 00:54 METAR KDDH 170554Z AUTO 00000KT 10SM CLR M07/M12 A3004 RMK AO2 SLP182 T10721122
                 11039 21072 53017 =
2019-02-16 23:54 METAR KDDH 170454Z AUTO 24004KT 10SM CLR M07/M12 A3001 RMK AO2 SLP173 T10671117
                 400001072 =
2019-02-16 22:54 METAR KDDH 170354Z AUTO 00000KT 10SM BKN038 M06/M12 A3000 RMK AO2 SLP169
                 T10561122 =
2019-02-16 21:54 METAR KDDH 170254Z AUTO 00000KT 10SM CLR M05/M12 A2998 RMK AO2 SLP164 T10501122
                 53019 =
2019-02-16 20:54 METAR KDDH 170154Z AUTO 33007KT 10SM CLR M04/M12 A2996 RMK AO2 SLP156 T10441117
                 =
2019-02-16 19:54 METAR KDDH 170054Z AUTO VRB04KT 10SM FEW039 M04/M11 A2993 RMK AO2 SLP147
                 T10441106 =
2019-02-16 18:54 METAR KDDH 162354Z AUTO 24008KT 10SM FEW039 M04/M11 A2993 RMK AO2 SLP144
                 T10391106 10000 21039 53023 =
2019-02-16 17:54 METAR KDDH 162254Z AUTO 25008KT 10SM CLR M03/M10 A2990 RMK AO2 SLP136 T10281100
                 =
2019-02-16 16:54 METAR KDDH 162154Z AUTO 28010G16KT 10SM FEW045 M02/M09 A2987 RMK AO2 SLP124
                 T10171094 =
2019-02-16 15:54 METAR KDDH 162054Z AUTO 26009G16KT 10SM OVC045 M01/M08 A2986 RMK AO2 SLP120
                 T10061083 53012 =

Support USWX by starting your Amazon purchase here.